Time;durP1;ratioP1;P1;durP2;ratioP2;P2;SDS_P1;SDS_P2;PMS_P1;PMS_P2;Temp;Humidity;BMP_temperature;BMP_pressure;BME280_temperature;BME280_humidity;BME280_pressure;Samples;Min_cycle;Max_cycle;Signal;HPM_P1;HPM_P2
2022/05/22 00:02:13;;;;;;;3.03;2.83;;;16.20;99.90;;;;;;5086279;28;20663;-89
2022/05/22 00:04:40;;;;;;;4.07;3.67;;;16.20;99.90;;;;;;5085570;28;20659;-88
2022/05/22 00:07:07;;;;;;;4.10;3.10;;;16.20;99.90;;;;;;5087162;28;20635;-88
2022/05/22 00:09:35;;;;;;;3.53;3.17;;;16.20;99.90;;;;;;5082883;28;20644;-88
2022/05/22 00:12:02;;;;;;;3.30;2.90;;;16.30;99.90;;;;;;5085843;28;21001;-88
2022/05/22 00:14:29;;;;;;;3.37;3.07;;;16.30;99.90;;;;;;5079804;28;20644;-88
2022/05/22 00:16:56;;;;;;;3.50;2.77;;;16.30;99.90;;;;;;5084704;28;20617;-89
2022/05/22 00:19:27;;;;;;;4.03;2.90;;;16.20;99.90;;;;;;5084507;28;21012;-88
2022/05/22 00:21:54;;;;;;;3.87;3.47;;;16.20;99.90;;;;;;5084158;28;20648;-88
2022/05/22 00:24:22;;;;;;;5.37;3.30;;;16.10;99.90;;;;;;5087592;28;20632;-87
2022/05/22 00:26:49;;;;;;;3.40;3.10;;;16.20;99.90;;;;;;5082978;28;20656;-88
2022/05/22 00:29:17;;;;;;;3.70;3.30;;;16.10;99.90;;;;;;5084417;28;20965;-88
2022/05/22 00:31:45;;;;;;;3.97;3.17;;;16.20;99.90;;;;;;5079015;28;20714;-88
2022/05/22 00:34:13;;;;;;;4.30;3.30;;;16.10;99.90;;;;;;5086920;28;21134;-88
2022/05/22 00:36:42;;;;;;;4.67;2.93;;;16.10;99.90;;;;;;5085899;28;20631;-88
2022/05/22 00:39:08;;;;;;;3.03;2.47;;;16.10;99.90;;;;;;5081209;28;20631;-89
2022/05/22 00:41:36;;;;;;;5.37;3.80;;;16.10;99.90;;;;;;5085694;28;20624;-88
2022/05/22 00:44:05;;;;;;;3.60;3.30;;;16.10;99.90;;;;;;5084999;28;20679;-88
2022/05/22 00:46:33;;;;;;;4.10;3.27;;;16.10;99.90;;;;;;5089031;28;20964;-88
2022/05/22 00:49:05;;;;;;;3.10;2.80;;;16.10;99.90;;;;;;5091952;28;21170;-88
2022/05/22 00:51:37;;;;;;;3.07;2.83;;;16.00;99.90;;;;;;5095276;28;20698;-88
2022/05/22 00:54:15;;;;;;;3.73;3.43;;;16.10;99.90;;;;;;5089886;28;20612;-88
2022/05/22 00:56:47;;;;;;;3.10;2.90;;;16.10;99.90;;;;;;5088671;28;20621;-88
2022/05/22 00:59:19;;;;;;;4.83;3.30;;;16.10;99.90;;;;;;5083280;28;20620;-88
2022/05/22 01:01:48;;;;;;;4.23;3.13;;;16.00;99.90;;;;;;5079653;28;20627;-88
2022/05/22 01:04:21;;;;;;;3.83;3.33;;;16.00;99.90;;;;;;5083388;28;20732;-88
2022/05/22 01:06:47;;;;;;;4.90;4.40;;;15.90;99.90;;;;;;5079536;28;20652;-88
2022/05/22 01:09:17;;;;;;;4.97;3.77;;;15.90;99.90;;;;;;5071363;28;20629;-88
2022/05/22 01:11:45;;;;;;;3.57;3.37;;;15.90;99.90;;;;;;5082219;28;20651;-88
2022/05/22 01:14:15;;;;;;;3.73;3.20;;;15.90;99.90;;;;;;5085606;28;21479;-88
2022/05/22 01:16:42;;;;;;;3.80;3.50;;;15.90;99.90;;;;;;5082076;28;20632;-87
2022/05/22 01:19:15;;;;;;;6.03;5.47;;;15.90;99.90;;;;;;5082798;28;21204;-88
2022/05/22 01:21:44;;;;;;;4.80;4.40;;;15.80;99.90;;;;;;5087094;28;20992;-88
2022/05/22 01:24:12;;;;;;;4.40;4.00;;;15.80;99.90;;;;;;5083622;28;20656;-87
2022/05/22 01:26:38;;;;;;;4.33;4.00;;;15.80;99.90;;;;;;5084162;28;20629;-88
2022/05/22 01:29:05;;;;;;;6.17;5.67;;;15.80;99.90;;;;;;5076894;28;20987;-87
2022/05/22 01:31:32;;;;;;;4.80;4.40;;;15.80;99.90;;;;;;5084753;28;20666;-88
2022/05/22 01:33:59;;;;;;;5.60;4.87;;;15.80;99.90;;;;;;5087580;28;20632;-88
2022/05/22 01:36:26;;;;;;;4.53;4.23;;;15.70;99.90;;;;;;5089380;28;20631;-87
2022/05/22 01:38:53;;;;;;;4.00;3.60;;;15.70;99.90;;;;;;5088758;28;20620;-88
2022/05/22 01:41:21;;;;;;;4.07;3.67;;;15.80;99.90;;;;;;5090417;28;20672;-88
2022/05/22 01:43:47;;;;;;;3.63;3.33;;;15.70;99.90;;;;;;5084368;28;20667;-87
2022/05/22 01:46:14;;;;;;;3.33;3.13;;;15.70;99.90;;;;;;5085082;28;21257;-87
2022/05/22 01:48:41;;;;;;;6.00;3.37;;;15.80;99.90;;;;;;5087465;28;20646;-87
2022/05/22 01:51:10;;;;;;;3.73;3.43;;;15.80;99.90;;;;;;5084171;28;20655;-88
2022/05/22 01:53:37;;;;;;;3.90;3.50;;;15.70;99.90;;;;;;5085378;28;20677;-86
2022/05/22 01:56:04;;;;;;;3.40;2.87;;;15.60;99.90;;;;;;5089893;28;20628;-86
2022/05/22 01:58:32;;;;;;;2.60;2.50;;;15.60;99.90;;;;;;5084736;28;20616;-86
2022/05/22 02:00:59;;;;;;;3.10;2.90;;;15.50;99.90;;;;;;5085633;28;21499;-88
2022/05/22 02:03:26;;;;;;;3.20;2.90;;;15.50;99.90;;;;;;5088605;28;20671;-88
2022/05/22 02:05:52;;;;;;;4.40;4.00;;;15.50;99.90;;;;;;5093150;28;21190;-88
2022/05/22 02:08:24;;;;;;;3.30;3.00;;;15.60;99.90;;;;;;5095261;28;20620;-87
2022/05/22 02:10:54;;;;;;;3.60;3.30;;;15.50;99.90;;;;;;5092784;28;20640;-87
2022/05/22 02:13:22;;;;;;;3.60;2.83;;;15.40;99.90;;;;;;5086547;28;20630;-87
2022/05/22 02:15:51;;;;;;;3.97;3.50;;;15.40;99.90;;;;;;5089308;28;20620;-88
2022/05/22 02:18:18;;;;;;;3.50;2.93;;;15.40;99.90;;;;;;5085634;28;20635;-88
2022/05/22 02:20:47;;;;;;;3.60;3.10;;;15.40;99.90;;;;;;5085793;28;20651;-88
2022/05/22 02:23:15;;;;;;;3.37;3.07;;;15.40;99.90;;;;;;5089098;28;20666;-88
2022/05/22 02:25:44;;;;;;;3.23;2.93;;;15.50;99.90;;;;;;5087021;28;20632;-87
2022/05/22 02:28:14;;;;;;;3.37;3.07;;;15.40;99.90;;;;;;5087778;28;20998;-87
2022/05/22 02:30:42;;;;;;;3.93;3.63;;;15.30;99.90;;;;;;5084371;28;20710;-87
2022/05/22 02:33:11;;;;;;;4.33;3.17;;;15.30;99.90;;;;;;5084140;28;20620;-87
2022/05/22 02:35:38;;;;;;;2.97;2.77;;;15.30;99.90;;;;;;5083564;28;20632;-87
2022/05/22 02:38:05;;;;;;;5.20;2.93;;;15.30;99.90;;;;;;5086115;28;20647;-88
2022/05/22 02:40:34;;;;;;;3.20;2.90;;;15.40;99.90;;;;;;5080873;28;20664;-87
2022/05/22 02:43:01;;;;;;;3.50;3.20;;;15.40;99.90;;;;;;5080946;28;21247;-88
2022/05/22 02:45:30;;;;;;;3.70;3.50;;;15.40;99.90;;;;;;5087450;28;20635;-87
2022/05/22 02:47:57;;;;;;;3.67;3.13;;;15.20;99.90;;;;;;5084322;28;20616;-87
2022/05/22 02:50:27;;;;;;;3.60;2.93;;;15.10;99.90;;;;;;5083667;28;20647;-87
2022/05/22 02:52:54;;;;;;;3.20;3.00;;;15.20;99.90;;;;;;5088035;28;21217;-87
2022/05/22 02:55:22;;;;;;;2.83;2.53;;;15.20;99.90;;;;;;5085881;28;20639;-88
2022/05/22 02:57:49;;;;;;;3.20;2.90;;;15.30;99.90;;;;;;5084139;28;20631;-88
2022/05/22 03:00:20;;;;;;;2.90;2.70;;;15.20;99.90;;;;;;5084127;28;20648;-87
2022/05/22 03:02:46;;;;;;;3.33;3.13;;;15.20;99.90;;;;;;5079903;28;21301;-88
2022/05/22 03:05:14;;;;;;;3.93;3.30;;;15.30;99.90;;;;;;5084973;28;20616;-87
2022/05/22 03:07:42;;;;;;;3.37;3.10;;;15.30;99.90;;;;;;5084555;28;21234;-87
2022/05/22 03:10:11;;;;;;;2.97;2.67;;;15.30;99.90;;;;;;5089679;28;21013;-87
2022/05/22 03:12:39;;;;;;;2.97;2.77;;;15.30;99.90;;;;;;5083929;28;20624;-88
2022/05/22 03:15:08;;;;;;;3.00;2.60;;;15.30;99.90;;;;;;5083347;28;20624;-87
2022/05/22 03:17:35;;;;;;;3.03;2.83;;;15.30;99.90;;;;;;5081428;28;20659;-87
2022/05/22 03:20:02;;;;;;;4.57;2.60;;;15.30;99.90;;;;;;5086032;28;20655;-87
2022/05/22 03:22:29;;;;;;;3.30;3.00;;;15.30;99.90;;;;;;5088897;28;21195;-87
2022/05/22 03:24:57;;;;;;;3.43;3.13;;;15.30;99.90;;;;;;5087794;28;20659;-87
2022/05/22 03:27:24;;;;;;;2.77;2.60;;;15.30;99.90;;;;;;5082394;28;20640;-87
2022/05/22 03:29:52;;;;;;;3.83;2.90;;;15.20;99.90;;;;;;5081911;28;20657;-87
2022/05/22 03:32:19;;;;;;;3.27;3.07;;;15.20;99.90;;;;;;5087416;28;20620;-87
2022/05/22 03:34:46;;;;;;;4.03;2.97;;;15.30;99.90;;;;;;5085179;28;21069;-87
2022/05/22 03:37:14;;;;;;;3.57;3.27;;;15.30;99.90;;;;;;5083293;28;20616;-86
2022/05/22 03:39:41;;;;;;;2.80;2.60;;;15.20;99.90;;;;;;5087057;28;20652;-87
2022/05/22 03:42:10;;;;;;;3.20;2.90;;;15.10;99.90;;;;;;5085549;28;20631;-87
2022/05/22 03:44:37;;;;;;;3.13;2.93;;;15.10;99.90;;;;;;5080464;28;21024;-87
2022/05/22 03:47:05;;;;;;;3.83;2.77;;;15.10;99.90;;;;;;5086765;28;20620;-87
2022/05/22 03:49:32;;;;;;;3.10;2.90;;;15.10;99.90;;;;;;5080398;28;20656;-87
2022/05/22 03:51:59;;;;;;;3.40;3.13;;;15.10;99.90;;;;;;5080375;28;20689;-87
2022/05/22 03:54:26;;;;;;;3.00;2.80;;;15.10;99.90;;;;;;5078526;28;20631;-87
2022/05/22 03:56:53;;;;;;;3.93;3.37;;;15.10;99.90;;;;;;5082047;28;20624;-87
2022/05/22 03:59:21;;;;;;;4.57;3.17;;;15.10;99.90;;;;;;5087324;28;20638;-87
2022/05/22 04:01:48;;;;;;;3.33;3.03;;;15.10;99.90;;;;;;5086904;28;20651;-88
2022/05/22 04:04:14;;;;;;;2.93;2.73;;;15.10;99.90;;;;;;5083332;28;20660;-87
2022/05/22 04:06:41;;;;;;;3.20;3.00;;;15.10;99.90;;;;;;5082511;28;20675;-87
2022/05/22 04:09:09;;;;;;;3.00;2.57;;;15.10;99.90;;;;;;5079092;28;20632;-87
2022/05/22 04:11:36;;;;;;;2.67;2.47;;;15.10;99.90;;;;;;5085311;28;20660;-87
2022/05/22 04:14:03;;;;;;;2.40;2.20;;;15.10;99.90;;;;;;5083790;28;20651;-87
2022/05/22 04:16:31;;;;;;;4.43;2.67;;;15.00;99.90;;;;;;5080323;28;20646;-87
2022/05/22 04:18:58;;;;;;;3.57;3.30;;;15.10;99.90;;;;;;5084763;28;20632;-87
2022/05/22 04:21:24;;;;;;;2.47;2.37;;;15.10;99.90;;;;;;5084944;28;20662;-87
2022/05/22 04:26:36;;;;;;;3.10;2.90;;;15.10;99.90;;;;;;5086540;28;20619;-87
2022/05/22 04:29:03;;;;;;;3.03;2.83;;;15.20;99.90;;;;;;5083233;28;20954;-87
2022/05/22 04:31:31;;;;;;;3.23;2.93;;;15.10;99.90;;;;;;5082091;28;20660;-87
2022/05/22 04:33:58;;;;;;;3.50;3.20;;;15.10;99.90;;;;;;5081079;28;20612;-87
2022/05/22 04:36:25;;;;;;;3.37;3.07;;;15.00;99.90;;;;;;5079015;28;20631;-87
2022/05/22 04:38:51;;;;;;;3.33;2.63;;;14.90;99.90;;;;;;5082265;28;20642;-86
2022/05/22 04:41:18;;;;;;;3.60;3.30;;;15.00;99.90;;;;;;5076136;28;20657;-87
2022/05/22 04:43:45;;;;;;;4.13;3.73;;;15.00;99.90;;;;;;5080467;28;20667;-86
2022/05/22 04:46:12;;;;;;;3.80;3.50;;;15.10;99.90;;;;;;5084898;28;20636;-87
2022/05/22 04:48:40;;;;;;;5.43;3.47;;;15.10;99.90;;;;;;5082961;28;20639;-86
2022/05/22 04:51:07;;;;;;;3.80;3.60;;;15.10;99.90;;;;;;5088350;28;20655;-87
2022/05/22 04:53:34;;;;;;;3.13;2.60;;;15.10;99.90;;;;;;5089098;28;20994;-87
2022/05/22 04:56:01;;;;;;;3.23;3.00;;;15.10;99.90;;;;;;5075718;28;20984;-87
2022/05/22 04:58:28;;;;;;;2.77;2.60;;;15.10;99.90;;;;;;5078612;28;20624;-87
2022/05/22 05:00:55;;;;;;;3.93;3.53;;;15.20;99.90;;;;;;5080320;28;20645;-87
2022/05/22 05:03:22;;;;;;;3.47;3.17;;;15.30;99.90;;;;;;5081991;28;20759;-87
2022/05/22 05:05:58;;;;;;;3.10;2.90;;;15.30;99.90;;;;;;5083605;28;20624;-86
2022/05/22 05:08:26;;;;;;;6.33;2.83;;;15.40;99.90;;;;;;5087167;28;20615;-87
2022/05/22 05:10:53;;;;;;;4.07;3.73;;;15.50;99.90;;;;;;5085040;28;20652;-87
2022/05/22 05:13:20;;;;;;;4.33;4.03;;;15.40;99.90;;;;;;5086663;28;21528;-87
2022/05/22 05:15:57;;;;;;;4.43;4.13;;;15.50;99.90;;;;;;5091087;28;20668;-87
2022/05/22 05:18:24;;;;;;;3.63;3.37;;;15.50;99.90;;;;;;5084971;28;20632;-87
2022/05/22 05:20:51;;;;;;;3.33;3.13;;;15.60;99.90;;;;;;5087781;28;20656;-87
2022/05/22 05:23:19;;;;;;;4.40;3.67;;;15.60;99.90;;;;;;5089732;28;20789;-87
2022/05/22 05:25:46;;;;;;;3.80;3.50;;;15.60;99.90;;;;;;5086999;28;20636;-87
2022/05/22 05:28:13;;;;;;;3.93;3.37;;;15.60;99.90;;;;;;5088846;28;20620;-87
2022/05/22 05:30:39;;;;;;;3.10;2.70;;;15.70;99.90;;;;;;5087893;28;21234;-87
2022/05/22 05:33:06;;;;;;;4.23;3.43;;;15.80;99.90;;;;;;5083020;28;20619;-87
2022/05/22 05:35:33;;;;;;;2.93;2.73;;;15.80;99.90;;;;;;5084319;28;20627;-87
2022/05/22 05:38:00;;;;;;;3.90;3.60;;;15.90;99.90;;;;;;5084380;28;21010;-87
2022/05/22 05:40:29;;;;;;;3.90;3.47;;;16.10;99.90;;;;;;5078241;28;20658;-87
2022/05/22 05:42:57;;;;;;;6.03;3.70;;;16.00;99.90;;;;;;5077786;28;20697;-87
2022/05/22 05:45:25;;;;;;;3.30;2.50;;;16.00;99.90;;;;;;5084164;28;20667;-88
2022/05/22 05:47:51;;;;;;;2.90;2.70;;;15.90;99.90;;;;;;5082996;28;20625;-87
2022/05/22 05:50:21;;;;;;;4.03;3.10;;;16.00;99.90;;;;;;5082762;28;20866;-87
2022/05/22 05:52:48;;;;;;;3.27;3.00;;;16.00;99.90;;;;;;5087021;28;20659;-88
2022/05/22 05:55:16;;;;;;;2.90;2.30;;;15.70;99.90;;;;;;5084146;28;20692;-87
2022/05/22 05:57:45;;;;;;;3.50;3.17;;;15.80;99.90;;;;;;5084671;28;20611;-87
2022/05/22 06:00:16;;;;;;;2.70;2.50;;;16.00;99.90;;;;;;5088027;28;20652;-88
2022/05/22 06:02:43;;;;;;;3.20;3.00;;;16.20;99.90;;;;;;5080283;28;20628;-88
2022/05/22 06:05:11;;;;;;;2.20;2.10;;;16.40;99.90;;;;;;5082503;28;20667;-87
2022/05/22 06:07:38;;;;;;;3.60;2.20;;;16.50;99.90;;;;;;5091481;28;20624;-88
2022/05/22 06:10:07;;;;;;;3.43;3.13;;;16.70;99.90;;;;;;5091751;28;20659;-88
2022/05/22 06:12:34;;;;;;;5.00;2.57;;;16.50;99.90;;;;;;5095766;28;20620;-88
2022/05/22 06:15:03;;;;;;;2.93;2.73;;;16.50;99.90;;;;;;5088843;28;21165;-88
2022/05/22 06:17:31;;;;;;;2.97;2.37;;;16.60;99.90;;;;;;5088073;28;21012;-88
2022/05/22 06:19:58;;;;;;;2.63;2.43;;;16.70;99.90;;;;;;5085814;28;20656;-88
2022/05/22 06:22:28;;;;;;;3.20;2.53;;;16.80;99.90;;;;;;5086593;28;20831;-88
2022/05/22 06:24:56;;;;;;;2.43;2.23;;;17.10;99.90;;;;;;5088489;28;20660;-87
2022/05/22 06:27:23;;;;;;;2.37;2.17;;;17.30;99.90;;;;;;5084717;28;20640;-87
2022/05/22 06:29:50;;;;;;;3.13;2.27;;;17.40;99.90;;;;;;5079470;28;20774;-88
2022/05/22 06:32:20;;;;;;;3.03;2.63;;;17.60;99.90;;;;;;5088732;28;20669;-88
2022/05/22 06:34:47;;;;;;;4.00;2.60;;;17.50;99.90;;;;;;5087168;28;21350;-88
2022/05/22 06:37:16;;;;;;;2.90;2.67;;;17.30;99.90;;;;;;5085440;28;20715;-88
2022/05/22 06:39:54;;;;;;;2.77;2.57;;;17.50;99.90;;;;;;5096740;28;20651;-89
2022/05/22 06:42:24;;;;;;;3.63;2.70;;;17.60;99.90;;;;;;5097772;28;20620;-88
2022/05/22 06:44:56;;;;;;;1.87;1.77;;;17.70;99.90;;;;;;5089639;28;20640;-89
2022/05/22 06:47:26;;;;;;;2.70;2.50;;;17.90;99.90;;;;;;5088365;28;20616;-88
2022/05/22 06:49:54;;;;;;;3.90;3.00;;;17.90;99.90;;;;;;5081967;28;20652;-89
2022/05/22 06:52:21;;;;;;;3.63;2.63;;;18.10;99.90;;;;;;5082269;28;20633;-88
2022/05/22 06:54:49;;;;;;;3.83;2.70;;;18.30;99.90;;;;;;5082048;28;20620;-88
2022/05/22 06:57:17;;;;;;;3.20;2.43;;;18.40;99.90;;;;;;5083406;28;21202;-89
2022/05/22 06:59:45;;;;;;;2.33;2.13;;;18.70;99.90;;;;;;5087545;28;20651;-88
2022/05/22 07:02:13;;;;;;;1.73;1.63;;;18.70;99.90;;;;;;5088899;28;20628;-89
2022/05/22 07:04:41;;;;;;;3.10;1.90;;;18.80;99.90;;;;;;5082116;28;20671;-89
2022/05/22 07:07:09;;;;;;;2.60;2.20;;;19.00;99.90;;;;;;5086169;28;21158;-89
2022/05/22 07:09:36;;;;;;;2.60;2.33;;;19.00;99.90;;;;;;5082689;28;20656;-89
2022/05/22 07:12:07;;;;;;;1.83;1.73;;;19.10;99.90;;;;;;5086801;28;21008;-89
2022/05/22 07:14:33;;;;;;;2.20;2.00;;;19.20;99.90;;;;;;5086810;28;20627;-89
2022/05/22 07:17:02;;;;;;;1.30;1.20;;;19.30;99.90;;;;;;5084879;28;20979;-89
2022/05/22 07:19:29;;;;;;;2.07;1.87;;;19.30;99.90;;;;;;5087662;28;20628;-89
2022/05/22 07:21:57;;;;;;;3.10;1.93;;;19.30;99.90;;;;;;5087166;28;20620;-90
2022/05/22 07:24:24;;;;;;;1.90;1.80;;;19.60;99.90;;;;;;5087601;28;20717;-89
2022/05/22 07:26:51;;;;;;;2.63;2.43;;;19.80;99.90;;;;;;5087632;28;20632;-89
2022/05/22 07:29:18;;;;;;;3.20;2.07;;;19.90;99.90;;;;;;5081907;28;20620;-89
2022/05/22 07:31:45;;;;;;;4.70;1.80;;;19.90;99.90;;;;;;5085661;28;21285;-89
2022/05/22 07:34:12;;;;;;;6.90;2.40;;;20.00;99.80;;;;;;5085844;28;20619;-89
2022/05/22 07:36:39;;;;;;;4.20;2.50;;;20.00;99.70;;;;;;5084784;28;20584;-89
2022/05/22 07:39:08;;;;;;;2.40;2.20;;;20.00;99.00;;;;;;5083175;28;20620;-89
2022/05/22 07:41:35;;;;;;;3.07;2.10;;;20.00;98.90;;;;;;5084649;28;20839;-89
2022/05/22 07:44:02;;;;;;;3.50;2.60;;;20.10;98.20;;;;;;5086053;28;20617;-89
2022/05/22 07:46:29;;;;;;;1.70;1.60;;;20.20;98.30;;;;;;5088748;28;21029;-89
2022/05/22 07:48:57;;;;;;;1.93;1.73;;;20.20;97.80;;;;;;5083448;28;20608;-89
2022/05/22 07:51:23;;;;;;;1.50;1.40;;;20.30;97.00;;;;;;5082572;28;20692;-90
2022/05/22 07:53:51;;;;;;;2.17;1.80;;;20.30;97.30;;;;;;5086973;28;21006;-90
2022/05/22 07:56:22;;;;;;;1.70;1.47;;;20.40;99.90;;;;;;5080219;28;20624;-90
2022/05/22 07:58:50;;;;;;;1.47;1.37;;;20.70;99.90;;;;;;5081479;28;20625;-89
2022/05/22 08:01:17;;;;;;;3.53;1.60;;;20.90;99.90;;;;;;5087136;28;20729;-89
2022/05/22 08:03:43;;;;;;;2.30;1.57;;;21.00;98.90;;;;;;5084850;28;21149;-89
2022/05/22 08:06:11;;;;;;;2.43;1.53;;;21.10;96.00;;;;;;5081326;28;20666;-89
2022/05/22 08:08:38;;;;;;;1.47;1.23;;;21.00;95.60;;;;;;5083519;28;20986;-90
2022/05/22 08:11:05;;;;;;;2.70;1.50;;;21.20;99.90;;;;;;5085405;28;20681;-90
2022/05/22 08:13:33;;;;;;;1.40;1.30;;;21.20;95.20;;;;;;5087778;28;20669;-90
2022/05/22 08:15:59;;;;;;;3.73;1.57;;;21.20;98.50;;;;;;5084583;28;21170;-90
2022/05/22 08:18:26;;;;;;;1.83;1.43;;;21.30;95.20;;;;;;5086080;28;20624;-89
2022/05/22 08:20:53;;;;;;;3.07;1.87;;;21.40;94.00;;;;;;5085431;28;20632;-90
2022/05/22 08:23:23;;;;;;;3.03;1.73;;;21.50;94.10;;;;;;5089553;28;20624;-90
2022/05/22 08:25:50;;;;;;;2.00;1.43;;;21.50;93.50;;;;;;5085742;28;20683;-90
2022/05/22 08:28:18;;;;;;;2.80;1.20;;;21.40;94.30;;;;;;5081747;28;20631;-90
2022/05/22 08:30:47;;;;;;;1.00;0.80;;;21.40;93.50;;;;;;5080054;28;20652;-90
2022/05/22 08:33:15;;;;;;;1.83;1.30;;;21.40;91.60;;;;;;5086433;28;20636;-90
2022/05/22 08:35:44;;;;;;;3.00;1.60;;;21.40;91.50;;;;;;5087163;28;20625;-90
2022/05/22 08:38:11;;;;;;;1.60;1.37;;;21.50;91.20;;;;;;5084752;28;21052;-90
2022/05/22 08:40:54;;;;;;;1.30;1.20;;;21.50;93.20;;;;;;5084617;28;20667;-90
2022/05/22 08:43:30;;;;;;;1.90;1.07;;;21.70;95.40;;;;;;5088306;28;20613;-91
2022/05/22 08:46:06;;;;;;;1.90;1.20;;;22.00;95.00;;;;;;5080657;28;20664;-90
2022/05/22 08:48:35;;;;;;;1.47;1.30;;;22.20;96.00;;;;;;5085986;28;20758;-90
2022/05/22 08:51:02;;;;;;;2.77;1.60;;;22.30;93.20;;;;;;5090041;28;20657;-91
2022/05/22 08:53:36;;;;;;;2.77;1.70;;;22.30;91.10;;;;;;5101268;28;20621;-89
2022/05/22 08:59:06;;;;;;;1.13;1.10;;;22.40;95.50;;;;;;5089374;28;20603;-90
2022/05/22 09:01:41;;;;;;;2.37;1.40;;;22.50;93.30;;;;;;5094650;28;20652;-90
2022/05/22 09:04:25;;;;;;;1.20;1.10;;;22.60;92.60;;;;;;5104787;28;20604;-90
2022/05/22 09:07:03;;;;;;;1.00;1.00;;;22.70;92.70;;;;;;5091673;28;21217;-91
2022/05/22 09:09:34;;;;;;;1.00;1.00;;;22.80;94.40;;;;;;5089548;28;20999;-91
2022/05/22 09:12:26;;;;;;;1.43;1.17;;;22.90;95.50;;;;;;5085996;28;20628;-90
2022/05/22 09:15:04;;;;;;;1.90;1.03;;;22.90;91.00;;;;;;5092046;28;21232;-91
2022/05/22 09:17:40;;;;;;;1.60;1.10;;;22.60;85.90;;;;;;5083027;28;20652;-91
2022/05/22 09:20:16;;;;;;;4.00;1.40;;;22.50;87.10;;;;;;5088851;28;20628;-91
2022/05/22 09:22:53;;;;;;;1.40;1.30;;;22.60;86.90;;;;;;5085554;28;20711;-91
2022/05/22 09:25:31;;;;;;;1.87;0.80;;;22.70;86.10;;;;;;5086686;28;20659;-91
2022/05/22 09:28:06;;;;;;;3.03;1.57;;;22.70;85.60;;;;;;5093522;28;20619;-91
2022/05/22 09:30:38;;;;;;;1.57;1.20;;;22.90;86.10;;;;;;5087014;28;20651;-90
2022/05/22 09:33:19;;;;;;;1.90;1.37;;;22.90;84.90;;;;;;5089100;28;20616;-91
2022/05/22 09:35:58;;;;;;;1.73;1.00;;;23.10;88.00;;;;;;5087930;28;20616;-91
2022/05/22 09:38:44;;;;;;;5.40;3.20;;;23.10;85.50;;;;;;5083344;28;20646;-90
2022/05/22 09:41:24;;;;;;;1.37;1.20;;;22.80;83.80;;;;;;5080417;28;20659;-91
2022/05/22 09:44:07;;;;;;;2.90;1.30;;;23.00;90.30;;;;;;5087675;28;20620;-91
2022/05/22 09:46:54;;;;;;;2.27;2.07;;;23.20;89.80;;;;;;5087196;28;20739;-91
2022/05/22 09:49:38;;;;;;;1.70;1.23;;;23.40;91.30;;;;;;5084898;28;20612;-91
2022/05/22 09:52:10;;;;;;;1.90;1.10;;;23.60;89.60;;;;;;5083945;28;21549;-91
2022/05/22 09:55:03;;;;;;;1.20;1.10;;;23.60;83.70;;;;;;5085602;28;20624;-91
2022/05/22 09:57:45;;;;;;;1.07;1.00;;;23.40;81.50;;;;;;5084795;28;20624;-91
2022/05/22 10:00:17;;;;;;;1.47;0.80;;;23.50;85.20;;;;;;5089270;28;20650;-92
2022/05/22 10:02:53;;;;;;;4.10;1.60;;;23.50;81.40;;;;;;5089791;28;20705;-91
2022/05/22 10:05:33;;;;;;;1.50;1.40;;;23.50;81.30;;;;;;5088512;28;20659;-91
2022/05/22 10:08:08;;;;;;;1.37;1.27;;;23.60;81.10;;;;;;5087068;28;20628;-91
2022/05/22 10:10:40;;;;;;;2.60;1.20;;;23.50;79.70;;;;;;5090981;28;20686;-92
2022/05/22 10:13:12;;;;;;;1.87;1.77;;;23.70;89.20;;;;;;5087249;28;20639;-92
2022/05/22 10:15:49;;;;;;;0.90;0.90;;;23.90;90.10;;;;;;5085443;28;20607;-92
2022/05/22 10:18:24;;;;;;;1.30;0.87;;;24.10;90.00;;;;;;5083317;28;20626;-93
2022/05/22 10:21:05;;;;;;;1.03;0.87;;;24.30;88.20;;;;;;5085506;28;21014;-92
2022/05/22 10:23:47;;;;;;;3.30;1.00;;;24.60;88.80;;;;;;5087800;28;20631;-93
2022/05/22 10:26:27;;;;;;;0.80;0.80;;;24.80;88.60;;;;;;5086971;28;20650;-93
2022/05/22 10:28:58;;;;;;;0.97;0.87;;;24.90;87.60;;;;;;5090350;28;20620;-91
2022/05/22 10:31:33;;;;;;;1.23;1.13;;;25.10;88.70;;;;;;5086076;28;20652;-92
2022/05/22 10:34:05;;;;;;;2.40;1.07;;;25.10;84.60;;;;;;5085120;28;20629;-93
2022/05/22 10:36:37;;;;;;;1.10;0.90;;;24.80;80.20;;;;;;5091438;28;20685;-93
2022/05/22 10:39:10;;;;;;;2.30;1.27;;;24.90;88.50;;;;;;5088520;28;20856;-93
2022/05/22 10:44:32;;;;;;;1.20;1.10;;;25.20;87.00;;;;;;5083220;28;20618;-94
2022/05/22 10:47:02;;;;;;;1.67;1.47;;;25.60;82.60;;;;;;5087898;28;21229;-93
2022/05/22 10:49:38;;;;;;;1.60;1.50;;;25.50;82.20;;;;;;5090361;28;21520;-94
2022/05/22 10:52:08;;;;;;;1.03;1.00;;;25.40;75.40;;;;;;5088849;28;21052;-93
2022/05/22 10:54:43;;;;;;;1.60;1.23;;;25.30;82.00;;;;;;5088075;28;20635;-94
2022/05/22 10:57:13;;;;;;;1.50;1.00;;;25.60;83.80;;;;;;5090057;28;20618;-94
2022/05/22 10:59:40;;;;;;;1.30;1.20;;;25.80;82.40;;;;;;5082894;28;20667;-93
2022/05/22 11:02:18;;;;;;;1.23;1.13;;;26.00;83.80;;;;;;5088321;28;20620;-93
2022/05/22 11:04:48;;;;;;;1.33;1.13;;;26.20;81.90;;;;;;5088819;28;20609;-93
2022/05/22 11:07:28;;;;;;;1.60;1.50;;;26.40;82.10;;;;;;5089088;28;20996;-94
2022/05/22 11:09:57;;;;;;;2.43;1.20;;;26.40;79.00;;;;;;5085273;28;21241;-94
2022/05/22 11:12:26;;;;;;;1.43;1.33;;;26.30;78.50;;;;;;5087036;28;20628;-94
2022/05/22 11:15:07;;;;;;;1.53;0.80;;;26.60;81.40;;;;;;5090223;28;20616;-93
2022/05/22 11:17:35;;;;;;;1.10;1.00;;;26.70;81.70;;;;;;5083930;28;20994;-94
2022/05/22 11:20:12;;;;;;;2.20;1.13;;;27.10;81.50;;;;;;5090013;28;20634;-94
2022/05/22 11:22:58;;;;;;;1.27;1.10;;;27.20;80.30;;;;;;5092269;28;20659;-94
2022/05/22 11:25:35;;;;;;;1.47;1.07;;;27.60;79.90;;;;;;5087311;28;20658;-93
2022/05/22 11:28:26;;;;;;;3.57;1.00;;;27.90;79.50;;;;;;5079825;28;20581;-93
2022/05/22 11:31:03;;;;;;;1.00;0.90;;;28.10;79.20;;;;;;5086409;28;20656;-93
2022/05/22 11:33:41;;;;;;;1.50;1.40;;;28.00;78.30;;;;;;5093774;28;21041;-94
2022/05/22 11:36:24;;;;;;;2.50;1.20;;;28.20;77.90;;;;;;5084767;28;20612;-94
2022/05/22 11:39:10;;;;;;;2.10;1.20;;;28.30;78.60;;;;;;5083941;28;20632;-92
2022/05/22 11:41:43;;;;;;;1.70;1.60;;;28.40;76.20;;;;;;5081644;28;21154;-93
2022/05/22 11:44:48;;;;;;;6.10;1.00;;;28.50;76.90;;;;;;5083891;28;20630;-92
2022/05/22 11:47:29;;;;;;;1.20;1.10;;;28.60;74.80;;;;;;5093404;28;20658;-94
2022/05/22 11:50:06;;;;;;;3.27;1.70;;;28.90;73.10;;;;;;5097542;28;20754;-92
2022/05/22 11:52:57;;;;;;;2.50;1.33;;;28.70;73.20;;;;;;5095410;28;20612;-93
2022/05/22 11:55:35;;;;;;;2.00;1.37;;;28.60;70.50;;;;;;5097476;28;20625;-92
2022/05/22 11:58:11;;;;;;;1.47;1.10;;;28.30;68.00;;;;;;5095464;28;20631;-92
2022/05/22 12:00:44;;;;;;;2.47;1.13;;;28.10;70.50;;;;;;5100752;28;20616;-91
2022/05/22 12:03:46;;;;;;;1.67;1.30;;;28.30;73.10;;;;;;5100917;28;20655;-92
2022/05/22 12:06:23;;;;;;;1.37;1.27;;;28.80;71.90;;;;;;5096740;28;20683;-92
2022/05/22 12:09:02;;;;;;;4.93;1.20;;;29.10;69.40;;;;;;5095145;28;20620;-91
2022/05/22 12:11:35;;;;;;;1.17;1.00;;;28.90;70.60;;;;;;5096999;28;20742;-92
2022/05/22 12:14:16;;;;;;;2.10;1.43;;;29.30;71.20;;;;;;5100160;28;20716;-92
2022/05/22 12:16:48;;;;;;;2.00;1.20;;;29.60;68.60;;;;;;5097794;28;20619;-93
2022/05/22 12:19:20;;;;;;;2.57;1.37;;;29.80;70.10;;;;;;5103799;28;20628;-92
2022/05/22 12:21:57;;;;;;;1.47;1.00;;;30.10;68.80;;;;;;5104714;28;20608;-92
2022/05/22 12:24:31;;;;;;;1.43;1.10;;;30.20;68.30;;;;;;5104482;28;20628;-93
2022/05/22 12:27:02;;;;;;;1.20;0.93;;;30.20;68.90;;;;;;5110046;28;20631;-92
2022/05/22 12:29:35;;;;;;;2.70;1.40;;;30.40;68.00;;;;;;5100232;28;20670;-92
2022/05/22 12:32:18;;;;;;;1.30;1.20;;;30.50;65.70;;;;;;5087165;28;20647;-92
2022/05/22 12:34:49;;;;;;;2.03;1.20;;;30.60;65.40;;;;;;5105208;28;20680;-90
2022/05/22 12:37:27;;;;;;;3.23;2.93;;;30.40;63.30;;;;;;5106400;28;20620;-91
2022/05/22 12:40:05;;;;;;;1.57;1.47;;;30.40;64.20;;;;;;5085812;28;20655;-91
2022/05/22 12:42:37;;;;;;;1.90;1.13;;;30.60;65.70;;;;;;5082862;28;20621;-92
2022/05/22 12:45:04;;;;;;;2.03;1.10;;;30.90;65.10;;;;;;5086229;28;20636;-92
2022/05/22 12:47:36;;;;;;;1.77;1.27;;;31.30;64.10;;;;;;5087297;28;20666;-92
2022/05/22 12:50:05;;;;;;;1.40;1.30;;;31.40;63.20;;;;;;5089043;28;20742;-92
2022/05/22 12:52:33;;;;;;;1.93;1.10;;;31.40;60.40;;;;;;5087938;28;20631;-92
2022/05/22 12:55:05;;;;;;;1.57;1.20;;;31.10;60.00;;;;;;5088319;28;20646;-92
2022/05/22 12:57:33;;;;;;;1.73;1.17;;;31.00;62.40;;;;;;5090106;28;20959;-92
2022/05/22 13:00:12;;;;;;;1.97;1.33;;;31.20;61.80;;;;;;5084166;28;20647;-92
2022/05/22 13:02:42;;;;;;;1.73;1.30;;;31.10;62.80;;;;;;5086227;28;20647;-92
2022/05/22 13:05:33;;;;;;;2.57;1.70;;;31.30;60.00;;;;;;5083496;28;20632;-91
2022/05/22 13:08:00;;;;;;;2.63;1.40;;;31.40;62.20;;;;;;5082666;28;20611;-91
2022/05/22 13:10:45;;;;;;;1.73;1.07;;;31.50;60.20;;;;;;5083522;28;20666;-91
2022/05/22 13:13:25;;;;;;;2.00;1.40;;;31.60;61.30;;;;;;5088516;28;20584;-91
2022/05/22 13:16:03;;;;;;;1.40;1.30;;;31.60;60.00;;;;;;5080884;28;20605;-91